Winslow Lindbergh Regional Airport Winslow US
ICAO: KINW
IATA: INW
Category: Medium
Scheduled Services: No

Elevation: 4941 ft
TransAlt. 18000 ft.

Airport Communications:
ASOS:118.875
ALBUQUERQUE CNTR:124.5
PRESCOTT RDO:122.6
CTAF/UNICOM:122.8

KINW Zoom In..

If you have problems with the map follow the link
https://www.worldairports.se/pages/airport.php?
ICAO=KINW

Runways:

(A) RW 04 length 6236 ft width 75 ft
---- / hdg 45

(B) RW 11 length 7100 ft width 150 ft
---- / hdg 106

(C) RW 22 length 6236 ft width 75 ft
---- / hdg 225

(D) RW 29 length 7100 ft width 150 ft
---- / hdg 286

Location; KINW
Day. 13 / Time. 11.56 Zulu
* Altimeter: 30.19
* Temperature: -01° c. -30.2°f.
* Wind from: 000° Speed 00 kn.
Dewpoint: -02° c.
Visibility: 10 Statute Miles.
Clouds: Clear (automated report).

KINW 131156Z AUTO 00000KT 10SM CLR M01/M02 A3019 RMK AO2 SLP216 T10061022 10033 21011 55006


Wind - Calm.

 
 
jpsmedia worldairports.se 2019   terms of use